Time;durP1;ratioP1;P1;durP2;ratioP2;P2;SDS_P1;SDS_P2;PMS_P1;PMS_P2;Temp;Humidity;BMP_temperature;BMP_pressure;BME280_temperature;BME280_humidity;BME280_pressure;Samples;Min_cycle;Max_cycle;Signal;HPM_P1;HPM_P2
2023/10/03 00:00:53;;;;;;;26.45;11.85;;;;;;;;;;5067808;28;20023;-78
2023/10/03 00:03:19;;;;;;;27.65;12.95;;;;;;;;;;5071297;28;20020;-80
2023/10/03 00:05:46;;;;;;;30.45;12.70;;;;;;;;;;5065576;28;20074;-79
2023/10/03 00:08:11;;;;;;;24.67;12.32;;;;;;;;;;5064504;28;20023;-78
2023/10/03 00:10:38;;;;;;;24.85;12.27;;;;;;;;;;5071444;28;20029;-79
2023/10/03 00:13:11;;;;;;;26.27;11.88;;;;;;;;;;5051068;28;20465;-78
2023/10/03 00:15:48;;;;;;;27.67;12.23;;;;;;;;;;5068656;28;20111;-78
2023/10/03 00:18:14;;;;;;;27.70;12.70;;;;;;;;;;5065972;28;20111;-79
2023/10/03 00:20:40;;;;;;;27.40;12.30;;;;;;;;;;5048551;28;20024;-78
2023/10/03 00:23:05;;;;;;;29.98;12.25;;;;;;;;;;5061197;28;20672;-78
2023/10/03 00:25:31;;;;;;;27.15;12.35;;;;;;;;;;5051063;28;20021;-78
2023/10/03 00:28:00;;;;;;;25.40;12.40;;;;;;;;;;5043726;28;20035;-78
2023/10/03 00:30:29;;;;;;;27.60;12.30;;;;;;;;;;5060659;28;20115;-78
2023/10/03 00:32:57;;;;;;;27.73;11.77;;;;;;;;;;5059595;28;20036;-78
2023/10/03 00:35:24;;;;;;;29.30;12.70;;;;;;;;;;5067111;28;20054;-79
2023/10/03 00:37:53;;;;;;;30.55;13.75;;;;;;;;;;5045353;28;20028;-81
2023/10/03 00:42:50;;;;;;;26.85;12.73;;;;;;;;;;5061326;28;20729;-80
2023/10/03 00:45:21;;;;;;;28.00;12.48;;;;;;;;;;5066593;28;20530;-81
2023/10/03 00:47:53;;;;;;;29.77;12.43;;;;;;;;;;5062523;28;20271;-81
2023/10/03 00:50:20;;;;;;;32.67;13.57;;;;;;;;;;5061101;28;20464;-81
2023/10/03 00:52:50;;;;;;;27.20;12.68;;;;;;;;;;5063451;28;20017;-80
2023/10/03 00:55:15;;;;;;;31.48;12.90;;;;;;;;;;5064452;28;20063;-80
2023/10/03 00:57:43;;;;;;;26.35;13.23;;;;;;;;;;5065126;28;20055;-81
2023/10/03 01:00:15;;;;;;;26.25;12.13;;;;;;;;;;5063920;28;20024;-84
2023/10/03 01:02:47;;;;;;;;;;;;;;;;;;5063948;28;20032;-84
2023/10/03 01:05:15;;;;;;;27.45;11.93;;;;;;;;;;5068263;28;20318;-85
2023/10/03 01:07:41;;;;;;;28.17;12.27;;;;;;;;;;5064923;28;20028;-83
2023/10/03 01:10:08;;;;;;;30.83;13.73;;;;;;;;;;5066801;28;20066;-83
2023/10/03 01:12:35;;;;;;;29.20;13.07;;;;;;;;;;5071946;28;20372;-84
2023/10/03 01:15:05;;;;;;;27.83;12.35;;;;;;;;;;5067324;28;20393;-81
2023/10/03 01:17:33;;;;;;;27.85;12.18;;;;;;;;;;5067949;28;20036;-81
2023/10/03 01:20:00;;;;;;;27.85;12.77;;;;;;;;;;5067106;28;20428;-81
2023/10/03 01:22:26;;;;;;;26.90;11.82;;;;;;;;;;5052317;28;20495;-81
2023/10/03 01:24:51;;;;;;;27.67;12.73;;;;;;;;;;5067116;28;20499;-81
2023/10/03 01:27:17;;;;;;;27.90;12.27;;;;;;;;;;5050372;28;20024;-81
2023/10/03 01:29:42;;;;;;;29.40;12.50;;;;;;;;;;5065248;28;20107;-81
2023/10/03 01:32:07;;;;;;;28.45;12.80;;;;;;;;;;5071696;28;20033;-81
2023/10/03 01:34:33;;;;;;;31.77;13.05;;;;;;;;;;5070311;28;20040;-81
2023/10/03 01:36:58;;;;;;;29.40;12.55;;;;;;;;;;5053348;28;20119;-81
2023/10/03 01:39:24;;;;;;;28.15;12.52;;;;;;;;;;5048505;28;20040;-85
2023/10/03 01:41:50;;;;;;;30.85;13.32;;;;;;;;;;5068295;28;20491;-85
2023/10/03 01:44:16;;;;;;;29.38;12.98;;;;;;;;;;5044460;28;20028;-85
2023/10/03 01:46:41;;;;;;;30.80;12.50;;;;;;;;;;5069287;28;20060;-85
2023/10/03 01:49:07;;;;;;;30.38;12.93;;;;;;;;;;5042578;28;20526;-83
2023/10/03 01:51:33;;;;;;;31.27;13.23;;;;;;;;;;5063624;28;20125;-81
2023/10/03 01:53:58;;;;;;;29.58;12.18;;;;;;;;;;5063862;28;20462;-81
2023/10/03 01:56:24;;;;;;;28.88;12.63;;;;;;;;;;5063930;28;20527;-81
2023/10/03 01:58:50;;;;;;;27.80;12.27;;;;;;;;;;5066469;28;20051;-81
2023/10/03 02:01:15;;;;;;;27.23;12.63;;;;;;;;;;5065444;28;20472;-81
2023/10/03 02:03:41;;;;;;;27.95;12.25;;;;;;;;;;5049029;28;20389;-81
2023/10/03 02:06:07;;;;;;;29.38;12.82;;;;;;;;;;5069064;28;20032;-81
2023/10/03 02:08:33;;;;;;;28.00;13.18;;;;;;;;;;5069005;28;20500;-81
2023/10/03 02:10:59;;;;;;;28.33;13.15;;;;;;;;;;5051408;28;20392;-81
2023/10/03 02:13:25;;;;;;;27.48;12.38;;;;;;;;;;5050293;28;21153;-81
2023/10/03 02:15:53;;;;;;;26.75;12.57;;;;;;;;;;5062281;28;20064;-82
2023/10/03 02:18:19;;;;;;;27.48;12.55;;;;;;;;;;5067100;28;20059;-81
2023/10/03 02:20:51;;;;;;;25.17;11.60;;;;;;;;;;5059597;28;20029;-81
2023/10/03 02:23:20;;;;;;;29.13;12.20;;;;;;;;;;5049855;28;20025;-81
2023/10/03 02:26:10;;;;;;;23.80;11.43;;;;;;;;;;5069153;28;20031;-81
2023/10/03 02:28:36;;;;;;;26.77;12.35;;;;;;;;;;5070348;28;20036;-82
2023/10/03 02:31:06;;;;;;;24.92;11.50;;;;;;;;;;5048979;28;20079;-81
2023/10/03 02:33:32;;;;;;;26.75;12.23;;;;;;;;;;5051952;28;20025;-81
2023/10/03 02:35:57;;;;;;;25.75;12.43;;;;;;;;;;5047118;28;20510;-81
2023/10/03 02:38:29;;;;;;;27.27;12.48;;;;;;;;;;5068088;28;20027;-81
2023/10/03 02:41:01;;;;;;;27.58;11.55;;;;;;;;;;5052536;28;20025;-81
2023/10/03 02:43:29;;;;;;;23.73;10.45;;;;;;;;;;5067700;28;20021;-81
2023/10/03 02:45:54;;;;;;;29.00;12.00;;;;;;;;;;5069172;28;20577;-81
2023/10/03 02:48:21;;;;;;;25.98;11.20;;;;;;;;;;5047509;28;20057;-84
2023/10/03 02:50:49;;;;;;;23.67;10.43;;;;;;;;;;5044930;28;20032;-82
2023/10/03 02:53:17;;;;;;;27.00;11.25;;;;;;;;;;5043558;28;20149;-82
2023/10/03 02:55:43;;;;;;;25.95;11.00;;;;;;;;;;5062131;28;20130;-84
2023/10/03 02:58:09;;;;;;;24.02;10.65;;;;;;;;;;5062422;28;20520;-84
2023/10/03 03:00:35;;;;;;;23.75;10.43;;;;;;;;;;5062121;28;20029;-85
2023/10/03 03:03:02;;;;;;;24.25;10.15;;;;;;;;;;5044255;28;20487;-85
2023/10/03 03:05:35;;;;;;;25.58;10.30;;;;;;;;;;5067492;28;20028;-85
2023/10/03 03:08:04;;;;;;;;;;;;;;;;;;5061733;28;20081;-85
2023/10/03 03:10:30;;;;;;;23.42;9.68;;;;;;;;;;5065968;28;19913;-84
2023/10/03 03:12:57;;;;;;;22.83;9.90;;;;;;;;;;5046489;28;20017;-81
2023/10/03 03:15:23;;;;;;;22.27;9.50;;;;;;;;;;5059943;28;20101;-80
2023/10/03 03:17:50;;;;;;;22.42;9.82;;;;;;;;;;5057389;28;20496;-80
2023/10/03 03:20:24;;;;;;;20.48;9.13;;;;;;;;;;5072196;28;20043;-80
2023/10/03 03:22:50;;;;;;;24.90;9.68;;;;;;;;;;5067515;28;20500;-80
2023/10/03 03:25:36;;;;;;;25.88;9.80;;;;;;;;;;5068339;28;20036;-80
2023/10/03 03:28:13;;;;;;;21.65;9.40;;;;;;;;;;5061662;28;20111;-80
2023/10/03 03:30:48;;;;;;;18.48;8.52;;;;;;;;;;5071758;28;20024;-80
2023/10/03 03:33:19;;;;;;;20.27;8.85;;;;;;;;;;5061666;28;20065;-80
2023/10/03 03:35:46;;;;;;;19.90;8.10;;;;;;;;;;5049387;28;20111;-80
2023/10/03 03:38:15;;;;;;;19.52;8.88;;;;;;;;;;5051252;28;20388;-81
2023/10/03 03:40:46;;;;;;;21.02;9.13;;;;;;;;;;5066979;28;20035;-81
2023/10/03 03:43:13;;;;;;;19.33;8.45;;;;;;;;;;5047818;28;20809;-80
2023/10/03 03:45:39;;;;;;;23.90;9.35;;;;;;;;;;5054589;28;21021;-80
2023/10/03 03:48:06;;;;;;;18.42;8.77;;;;;;;;;;5070787;28;20032;-81
2023/10/03 03:50:31;;;;;;;20.25;8.32;;;;;;;;;;5067898;28;20032;-81
2023/10/03 03:52:58;;;;;;;19.00;8.52;;;;;;;;;;5042215;28;20488;-80
2023/10/03 03:55:27;;;;;;;19.23;8.23;;;;;;;;;;5040686;28;20074;-80
2023/10/03 03:57:52;;;;;;;16.95;8.18;;;;;;;;;;5041911;28;20038;-80
2023/10/03 04:00:22;;;;;;;18.50;8.10;;;;;;;;;;5041018;28;20384;-81
2023/10/03 04:02:48;;;;;;;19.00;7.80;;;;;;;;;;5045349;28;20032;-80
2023/10/03 04:05:18;;;;;;;16.55;7.90;;;;;;;;;;5043036;28;20047;-81
2023/10/03 04:07:43;;;;;;;16.60;7.97;;;;;;;;;;5060091;28;20500;-81
2023/10/03 04:10:13;;;;;;;17.35;7.47;;;;;;;;;;5044817;28;20146;-80
2023/10/03 04:12:41;;;;;;;16.13;7.03;;;;;;;;;;5061573;28;20021;-80
2023/10/03 04:15:10;;;;;;;19.77;7.10;;;;;;;;;;5043695;28;20381;-81
2023/10/03 04:17:36;;;;;;;17.42;7.53;;;;;;;;;;5057017;28;20602;-82
2023/10/03 04:20:03;;;;;;;13.70;6.47;;;;;;;;;;5041879;28;20024;-81
2023/10/03 04:22:28;;;;;;;13.88;6.25;;;;;;;;;;5044509;28;20043;-81
2023/10/03 04:24:55;;;;;;;12.43;5.82;;;;;;;;;;5061602;28;20029;-81
2023/10/03 04:27:20;;;;;;;14.30;5.85;;;;;;;;;;5062884;28;20024;-81
2023/10/03 04:29:47;;;;;;;10.73;4.75;;;;;;;;;;5063260;28;20032;-82
2023/10/03 04:32:12;;;;;;;8.20;4.00;;;;;;;;;;5045714;28;20472;-81
2023/10/03 04:34:38;;;;;;;8.65;4.22;;;;;;;;;;5068502;28;20031;-82
2023/10/03 04:37:03;;;;;;;10.63;4.70;;;;;;;;;;5046040;28;20032;-81
2023/10/03 04:39:28;;;;;;;9.20;4.20;;;;;;;;;;5043568;28;20029;-78
2023/10/03 04:41:54;;;;;;;11.55;4.57;;;;;;;;;;5042849;28;20108;-78
2023/10/03 04:44:19;;;;;;;10.40;4.55;;;;;;;;;;5046002;28;20028;-79
2023/10/03 04:46:45;;;;;;;10.95;4.47;;;;;;;;;;5066494;28;20118;-79
2023/10/03 04:49:11;;;;;;;9.55;4.45;;;;;;;;;;5048175;28;20032;-79
2023/10/03 04:51:37;;;;;;;13.25;4.50;;;;;;;;;;5039165;28;20032;-78
2023/10/03 04:54:02;;;;;;;10.45;4.72;;;;;;;;;;5060282;28;20047;-81
2023/10/03 04:56:28;;;;;;;11.32;5.22;;;;;;;;;;5070984;28;20094;-81
2023/10/03 04:58:55;;;;;;;10.02;4.40;;;;;;;;;;5065297;28;20028;-81
2023/10/03 05:01:52;;;;;;;8.20;4.97;;;;;;;;;;5074048;28;20531;-81
2023/10/03 05:04:22;;;;;;;8.70;4.40;;;;;;;;;;5064721;28;20904;-83
2023/10/03 05:06:49;;;;;;;7.78;4.00;;;;;;;;;;5047866;28;20119;-82
2023/10/03 05:09:15;;;;;;;8.25;3.95;;;;;;;;;;5064331;28;20025;-85
2023/10/03 05:11:42;;;;;;;9.23;3.85;;;;;;;;;;5064913;28;20024;-85
2023/10/03 05:14:08;;;;;;;11.90;4.18;;;;;;;;;;5066740;28;20154;-86
2023/10/03 05:16:35;;;;;;;8.90;4.10;;;;;;;;;;5051659;28;20059;-82
2023/10/03 05:19:00;;;;;;;8.77;4.25;;;;;;;;;;5047864;28;20070;-85
2023/10/03 05:21:26;;;;;;;9.82;4.18;;;;;;;;;;5072584;28;20384;-85
2023/10/03 05:23:52;;;;;;;7.93;4.15;;;;;;;;;;5052116;28;20108;-86
2023/10/03 05:26:25;;;;;;;6.97;3.90;;;;;;;;;;5068589;28;20017;-86
2023/10/03 05:28:55;;;;;;;6.95;3.80;;;;;;;;;;5069309;28;20028;-85
2023/10/03 05:31:21;;;;;;;8.27;4.25;;;;;;;;;;5050463;28;20063;-85
2023/10/03 05:33:46;;;;;;;8.93;4.15;;;;;;;;;;5044629;28;20048;-85
2023/10/03 05:36:18;;;;;;;10.73;4.40;;;;;;;;;;5049292;28;20464;-85
2023/10/03 05:38:44;;;;;;;8.85;4.18;;;;;;;;;;5053826;28;20040;-85
2023/10/03 05:41:23;;;;;;;9.73;4.53;;;;;;;;;;5057825;28;20143;-85
2023/10/03 05:43:48;;;;;;;9.38;4.30;;;;;;;;;;5058264;28;20021;-85
2023/10/03 05:46:14;;;;;;;8.95;4.82;;;;;;;;;;5047073;28;20025;-86
2023/10/03 05:48:40;;;;;;;10.40;4.78;;;;;;;;;;5046503;28;20119;-84
2023/10/03 05:51:06;;;;;;;11.85;4.80;;;;;;;;;;5070831;28;20373;-85
2023/10/03 05:53:33;;;;;;;7.38;4.40;;;;;;;;;;5062362;28;20369;-85
2023/10/03 05:55:58;;;;;;;9.73;4.68;;;;;;;;;;5050212;28;20083;-85
2023/10/03 05:58:24;;;;;;;12.00;5.03;;;;;;;;;;5057630;28;20052;-85
2023/10/03 06:00:49;;;;;;;8.65;4.82;;;;;;;;;;5053603;28;20034;-85
2023/10/03 06:03:15;;;;;;;11.30;5.22;;;;;;;;;;5053852;28;20108;-84
2023/10/03 06:05:44;;;;;;;11.40;5.20;;;;;;;;;;5068229;28;20029;-83
2023/10/03 06:08:12;;;;;;;11.82;5.03;;;;;;;;;;5044316;28;20029;-84
2023/10/03 06:10:38;;;;;;;10.05;5.18;;;;;;;;;;5048366;28;20081;-83
2023/10/03 06:13:05;;;;;;;11.23;5.88;;;;;;;;;;5064388;28;20033;-84
2023/10/03 06:15:33;;;;;;;9.05;4.72;;;;;;;;;;5050416;28;20056;-85
2023/10/03 06:17:59;;;;;;;14.77;5.30;;;;;;;;;;5050313;28;20032;-84
2023/10/03 06:20:25;;;;;;;10.50;5.32;;;;;;;;;;5064741;28;20032;-81
2023/10/03 06:22:50;;;;;;;7.35;4.75;;;;;;;;;;5048300;28;20055;-80
2023/10/03 06:25:15;;;;;;;10.57;5.35;;;;;;;;;;5065636;28;20384;-80
2023/10/03 06:27:41;;;;;;;8.60;5.28;;;;;;;;;;5045974;28;20024;-80
2023/10/03 06:30:07;;;;;;;10.02;5.28;;;;;;;;;;5066345;28;20123;-80
2023/10/03 06:32:33;;;;;;;10.77;5.60;;;;;;;;;;5048790;28;20021;-79
2023/10/03 06:34:58;;;;;;;10.68;5.00;;;;;;;;;;5036565;28;20029;-80
2023/10/03 06:37:24;;;;;;;8.27;5.28;;;;;;;;;;5054471;28;20468;-80
2023/10/03 06:39:49;;;;;;;10.48;5.18;;;;;;;;;;5066391;28;20154;-80
2023/10/03 06:42:14;;;;;;;9.77;5.32;;;;;;;;;;5064280;28;20502;-80
2023/10/03 06:44:42;;;;;;;10.43;5.28;;;;;;;;;;5049984;28;20093;-80
2023/10/03 06:47:08;;;;;;;9.82;5.78;;;;;;;;;;5050333;28;20497;-80
2023/10/03 06:49:34;;;;;;;12.75;5.82;;;;;;;;;;5063429;28;20559;-81
2023/10/03 06:52:01;;;;;;;9.68;4.72;;;;;;;;;;5041835;28;20025;-80
2023/10/03 06:54:27;;;;;;;10.23;4.72;;;;;;;;;;5048203;28;20498;-80
2023/10/03 06:56:52;;;;;;;9.20;4.88;;;;;;;;;;5057111;28;20503;-80
2023/10/03 06:59:17;;;;;;;28.45;9.20;;;;;;;;;;5049249;28;20020;-82
2023/10/03 07:01:43;;;;;;;10.55;4.82;;;;;;;;;;5065937;28;20495;-82
2023/10/03 07:04:08;;;;;;;13.88;5.40;;;;;;;;;;5044255;28;20024;-84
2023/10/03 07:06:34;;;;;;;11.20;4.75;;;;;;;;;;5051688;28;20052;-84
2023/10/03 07:09:01;;;;;;;14.18;5.25;;;;;;;;;;5044557;28;20043;-84
2023/10/03 07:11:26;;;;;;;8.18;4.10;;;;;;;;;;5064619;28;20495;-84
2023/10/03 07:13:52;;;;;;;7.95;4.25;;;;;;;;;;5066591;28;20024;-84
2023/10/03 07:16:18;;;;;;;7.88;3.80;;;;;;;;;;5045849;28;20457;-81
2023/10/03 07:18:44;;;;;;;12.10;4.38;;;;;;;;;;5059600;28;20418;-85
2023/10/03 07:21:09;;;;;;;9.40;3.75;;;;;;;;;;5046669;28;20032;-83
2023/10/03 07:23:38;;;;;;;8.48;3.40;;;;;;;;;;5062339;28;20024;-85
2023/10/03 07:26:04;;;;;;;9.40;3.38;;;;;;;;;;5045131;28;20490;-84
2023/10/03 07:28:32;;;;;;;8.80;4.15;;;;;;;;;;5038800;28;20024;-81
2023/10/03 07:30:57;;;;;;;8.25;3.50;;;;;;;;;;5043541;28;20831;-81
2023/10/03 07:33:22;;;;;;;7.00;3.70;;;;;;;;;;5040091;28;20403;-82
2023/10/03 07:35:48;;;;;;;8.15;3.40;;;;;;;;;;5042450;28;20025;-82
2023/10/03 07:38:14;;;;;;;6.90;3.17;;;;;;;;;;5062522;28;20534;-81
2023/10/03 07:40:40;;;;;;;6.28;3.42;;;;;;;;;;5035728;28;20423;-82
2023/10/03 07:43:09;;;;;;;6.97;3.55;;;;;;;;;;5062308;28;20435;-82
2023/10/03 07:45:37;;;;;;;8.20;3.45;;;;;;;;;;5065218;28;20036;-82
2023/10/03 07:48:07;;;;;;;7.55;3.33;;;;;;;;;;5042265;28;20025;-82
2023/10/03 07:50:35;;;;;;;6.30;2.80;;;;;;;;;;5058413;28;20500;-82
2023/10/03 07:53:03;;;;;;;4.80;2.70;;;;;;;;;;5069192;28;20485;-82
2023/10/03 07:55:32;;;;;;;6.65;2.78;;;;;;;;;;5045472;28;20464;-82
2023/10/03 07:57:59;;;;;;;6.57;2.75;;;;;;;;;;5059331;28;20029;-82
2023/10/03 08:00:26;;;;;;;5.70;2.20;;;;;;;;;;5061174;28;20535;-82
2023/10/03 08:02:52;;;;;;;7.03;2.00;;;;;;;;;;5064393;28;20119;-82
2023/10/03 08:05:17;;;;;;;3.63;1.95;;;;;;;;;;5054863;28;20357;-82
2023/10/03 08:07:50;;;;;;;4.70;2.00;;;;;;;;;;5058123;28;20027;-82
2023/10/03 08:10:16;;;;;;;6.47;2.10;;;;;;;;;;5062871;28;20021;-82
2023/10/03 08:12:42;;;;;;;7.38;2.08;;;;;;;;;;5068778;28;20036;-82
2023/10/03 08:15:17;;;;;;;6.28;2.22;;;;;;;;;;5046288;28;20451;-82
2023/10/03 08:17:49;;;;;;;6.53;2.10;;;;;;;;;;5050259;28;20028;-82
2023/10/03 08:20:18;;;;;;;6.18;1.75;;;;;;;;;;5059675;28;20024;-82
2023/10/03 08:22:50;;;;;;;6.15;1.65;;;;;;;;;;5050096;28;20116;-82
2023/10/03 08:25:23;;;;;;;5.18;1.50;;;;;;;;;;5034085;28;20029;-82
2023/10/03 08:27:49;;;;;;;;;;;;;;;;;;5040984;28;20115;-82
2023/10/03 08:30:50;;;;;;;6.20;1.35;;;;;;;;;;5060092;28;19912;-82
2023/10/03 08:33:07;;;;;;;4.15;1.35;;;;;;;;;;5054079;28;20094;-82
2023/10/03 08:35:37;;;;;;;4.75;1.42;;;;;;;;;;5035195;28;20021;-82
2023/10/03 08:38:11;;;;;;;8.85;1.77;;;;;;;;;;5042624;28;20465;-82
2023/10/03 08:40:42;;;;;;;7.78;1.45;;;;;;;;;;5058979;28;20024;-81
2023/10/03 08:43:09;;;;;;;4.63;1.40;;;;;;;;;;5041629;28;20025;-79
2023/10/03 08:45:58;;;;;;;7.15;0.90;;;;;;;;;;5062180;28;20112;-80
2023/10/03 08:48:27;;;;;;;2.88;0.65;;;;;;;;;;5050968;28;20145;-80
2023/10/03 08:51:02;;;;;;;1.77;0.70;;;;;;;;;;5031088;28;20592;-79
2023/10/03 08:53:27;;;;;;;2.67;0.70;;;;;;;;;;5062148;28;20024;-80
2023/10/03 08:55:57;;;;;;;2.92;0.88;;;;;;;;;;5060765;28;20488;-79
2023/10/03 08:58:25;;;;;;;3.17;0.80;;;;;;;;;;5045336;28;20012;-79
2023/10/03 09:00:58;;;;;;;3.88;0.90;;;;;;;;;;5050120;28;20024;-79
2023/10/03 09:03:25;;;;;;;1.85;0.70;;;;;;;;;;5055311;28;20033;-79
2023/10/03 09:05:51;;;;;;;2.58;1.00;;;;;;;;;;5052911;28;20705;-80
2023/10/03 09:08:17;;;;;;;3.28;0.90;;;;;;;;;;5043485;28;20029;-79
2023/10/03 09:10:55;;;;;;;2.08;0.93;;;;;;;;;;5070805;28;20051;-79
2023/10/03 09:13:25;;;;;;;3.55;0.80;;;;;;;;;;5068396;28;20496;-79
2023/10/03 09:16:00;;;;;;;3.00;0.75;;;;;;;;;;5062378;28;20063;-79
2023/10/03 09:18:40;;;;;;;2.97;0.80;;;;;;;;;;5070227;28;20103;-79
2023/10/03 09:21:06;;;;;;;2.92;0.85;;;;;;;;;;5069977;28;20161;-79
2023/10/03 09:23:40;;;;;;;6.05;1.17;;;;;;;;;;5048455;28;20490;-80
2023/10/03 09:26:08;;;;;;;2.17;0.75;;;;;;;;;;5065022;28;20539;-79
2023/10/03 09:28:40;;;;;;;1.73;0.70;;;;;;;;;;5072193;28;20028;-79
2023/10/03 09:31:09;;;;;;;3.17;0.73;;;;;;;;;;5054416;28;20024;-80
2023/10/03 09:33:38;;;;;;;5.07;1.23;;;;;;;;;;5060925;28;20475;-80
2023/10/03 09:36:04;;;;;;;4.00;0.60;;;;;;;;;;5049813;28;20028;-79
2023/10/03 09:38:44;;;;;;;5.68;1.40;;;;;;;;;;5059674;28;20033;-79
2023/10/03 09:41:21;;;;;;;3.83;0.93;;;;;;;;;;5054752;28;20028;-80
2023/10/03 09:43:54;;;;;;;4.28;0.82;;;;;;;;;;5054863;28;20402;-79
2023/10/03 09:46:24;;;;;;;3.08;0.73;;;;;;;;;;5068353;28;20033;-79
2023/10/03 09:48:53;;;;;;;1.83;0.80;;;;;;;;;;5049831;28;20075;-83
2023/10/03 09:51:36;;;;;;;1.27;0.30;;;;;;;;;;5062264;28;20028;-80
2023/10/03 09:54:07;;;;;;;2.23;0.40;;;;;;;;;;5066159;28;20163;-83
2023/10/03 09:56:36;;;;;;;1.30;0.60;;;;;;;;;;5062063;28;20025;-82
2023/10/03 09:59:05;;;;;;;1.58;0.40;;;;;;;;;;5047922;28;20029;-81
2023/10/03 10:01:33;;;;;;;1.02;0.20;;;;;;;;;;5046140;28;20035;-82
2023/10/03 10:04:00;;;;;;;2.13;0.45;;;;;;;;;;5040436;28;20033;-83
2023/10/03 10:06:37;;;;;;;2.78;0.52;;;;;;;;;;5075328;28;20466;-83
2023/10/03 10:09:13;;;;;;;2.92;0.50;;;;;;;;;;5063362;28;20436;-83
2023/10/03 10:12:19;;;;;;;2.03;0.32;;;;;;;;;;5069639;28;20151;-83
2023/10/03 10:15:00;;;;;;;3.17;0.68;;;;;;;;;;5061906;28;20062;-83
2023/10/03 10:17:52;;;;;;;2.63;0.40;;;;;;;;;;5041294;28;20577;-83
2023/10/03 10:20:32;;;;;;;3.60;0.70;;;;;;;;;;5066800;28;20099;-83
2023/10/03 10:25:42;;;;;;;2.70;0.50;;;;;;;;;;5054024;28;20119;-80
2023/10/03 10:28:12;;;;;;;2.95;0.65;;;;;;;;;;5055702;28;20078;-81
2023/10/03 10:30:42;;;;;;;4.38;1.15;;;;;;;;;;5061656;28;20036;-82
2023/10/03 10:33:23;;;;;;;4.25;0.70;;;;;;;;;;5066984;28;20094;-82
2023/10/03 10:35:50;;;;;;;2.03;0.40;;;;;;;;;;5065033;28;20524;-82
2023/10/03 10:38:15;;;;;;;2.70;1.10;;;;;;;;;;5053812;28;20190;-82
2023/10/03 10:41:12;;;;;;;2.30;0.70;;;;;;;;;;5070507;28;20578;-82
2023/10/03 10:44:06;;;;;;;2.17;0.63;;;;;;;;;;5067860;28;20017;-83
2023/10/03 10:46:32;;;;;;;0.60;0.40;;;;;;;;;;5051756;28;20492;-83
2023/10/03 10:48:58;;;;;;;3.90;0.60;;;;;;;;;;5068328;28;20059;-80
2023/10/03 10:51:23;;;;;;;2.75;0.60;;;;;;;;;;5067745;28;20058;-80
2023/10/03 10:53:51;;;;;;;2.55;0.70;;;;;;;;;;5072131;28;20494;-80
2023/10/03 10:56:16;;;;;;;2.30;0.70;;;;;;;;;;5072137;28;20032;-80
2023/10/03 10:58:50;;;;;;;3.35;1.13;;;;;;;;;;5066968;28;20473;-78
2023/10/03 11:01:18;;;;;;;5.30;0.68;;;;;;;;;;5069801;28;20069;-78
2023/10/03 11:03:43;;;;;;;1.85;0.50;;;;;;;;;;5067320;28;20468;-77
2023/10/03 11:06:17;;;;;;;2.20;0.60;;;;;;;;;;5057665;28;20024;-78
2023/10/03 11:08:49;;;;;;;4.35;0.85;;;;;;;;;;5066646;28;20029;-77
2023/10/03 11:11:15;;;;;;;4.28;0.50;;;;;;;;;;5054557;28;20036;-79
2023/10/03 11:13:59;;;;;;;1.45;0.50;;;;;;;;;;5053328;28;20029;-77
2023/10/03 11:16:25;;;;;;;2.00;0.57;;;;;;;;;;5073129;28;20384;-79
2023/10/03 11:18:54;;;;;;;2.85;0.70;;;;;;;;;;5066926;28;20507;-78
2023/10/03 11:21:20;;;;;;;4.93;0.60;;;;;;;;;;5058064;28;20028;-77
2023/10/03 11:24:11;;;;;;;6.57;1.08;;;;;;;;;;5048015;28;20070;-78
2023/10/03 11:26:58;;;;;;;3.65;0.60;;;;;;;;;;5064713;28;20024;-77
2023/10/03 11:29:45;;;;;;;4.47;0.80;;;;;;;;;;5059685;28;20036;-77
2023/10/03 11:32:23;;;;;;;2.95;0.80;;;;;;;;;;5045773;28;20134;-77
2023/10/03 11:34:49;;;;;;;2.92;0.60;;;;;;;;;;5044361;28;20032;-78
2023/10/03 11:37:49;;;;;;;3.17;0.73;;;;;;;;;;5043738;28;20050;-78
2023/10/03 11:40:19;;;;;;;4.80;0.60;;;;;;;;;;5008216;28;20052;-77
2023/10/03 11:42:50;;;;;;;3.70;0.80;;;;;;;;;;5042406;28;20032;-78
2023/10/03 11:45:29;;;;;;;2.17;0.70;;;;;;;;;;5056168;28;20025;-78
2023/10/03 11:48:00;;;;;;;1.55;0.73;;;;;;;;;;5067073;28;20029;-79
2023/10/03 11:50:26;;;;;;;3.22;1.00;;;;;;;;;;5062397;28;20028;-78
2023/10/03 11:52:54;;;;;;;3.05;1.20;;;;;;;;;;5065489;28;20024;-79
2023/10/03 11:55:19;;;;;;;4.50;1.00;;;;;;;;;;5049340;28;20475;-77
2023/10/03 11:57:45;;;;;;;3.58;1.13;;;;;;;;;;5069651;28;20024;-78
2023/10/03 12:00:14;;;;;;;2.42;0.80;;;;;;;;;;5069213;28;20037;-77
2023/10/03 12:02:46;;;;;;;4.80;1.05;;;;;;;;;;5040599;28;20745;-77
2023/10/03 12:05:12;;;;;;;5.85;1.10;;;;;;;;;;5065621;28;20036;-77
2023/10/03 12:07:39;;;;;;;6.50;1.33;;;;;;;;;;5049833;28;20074;-78
2023/10/03 12:10:10;;;;;;;5.03;1.40;;;;;;;;;;5065949;28;20032;-81
2023/10/03 12:12:35;;;;;;;3.38;1.20;;;;;;;;;;5063792;28;20032;-80
2023/10/03 12:15:01;;;;;;;4.07;1.30;;;;;;;;;;5057548;28;20082;-82
2023/10/03 12:17:26;;;;;;;3.97;1.27;;;;;;;;;;5065993;28;20024;-81
2023/10/03 12:19:53;;;;;;;3.85;0.90;;;;;;;;;;5074708;28;20042;-81
2023/10/03 12:22:20;;;;;;;2.85;0.80;;;;;;;;;;5060628;28;20341;-82
2023/10/03 12:24:45;;;;;;;3.85;0.95;;;;;;;;;;5063907;28;20080;-83
2023/10/03 12:27:11;;;;;;;3.05;1.05;;;;;;;;;;5065276;28;20066;-82
2023/10/03 12:29:37;;;;;;;3.58;1.10;;;;;;;;;;5069872;28;20093;-83
2023/10/03 12:32:02;;;;;;;6.15;1.20;;;;;;;;;;5071106;28;20031;-83
2023/10/03 12:34:29;;;;;;;4.07;1.20;;;;;;;;;;5060799;28;20440;-83
2023/10/03 12:36:55;;;;;;;4.55;1.10;;;;;;;;;;5046299;28;20025;-83
2023/10/03 12:39:24;;;;;;;4.60;1.30;;;;;;;;;;5062635;28;20036;-82
2023/10/03 12:41:50;;;;;;;3.58;1.10;;;;;;;;;;5068038;28;20470;-82
2023/10/03 12:44:15;;;;;;;3.65;1.13;;;;;;;;;;5063257;28;20050;-82
2023/10/03 12:46:40;;;;;;;4.13;1.00;;;;;;;;;;5069624;28;20063;-83
2023/10/03 12:49:07;;;;;;;4.50;1.33;;;;;;;;;;5065046;28;20020;-82
2023/10/03 12:51:33;;;;;;;3.50;1.05;;;;;;;;;;5058686;28;20162;-83
2023/10/03 12:53:59;;;;;;;3.35;1.30;;;;;;;;;;5063061;28;20513;-82
2023/10/03 12:56:24;;;;;;;4.53;1.25;;;;;;;;;;5060347;28;20028;-82
2023/10/03 12:58:50;;;;;;;3.70;1.20;;;;;;;;;;5045264;28;20347;-82
2023/10/03 13:01:15;;;;;;;6.43;1.40;;;;;;;;;;5061468;28;20411;-83
2023/10/03 13:03:42;;;;;;;3.42;1.23;;;;;;;;;;5068498;28;20468;-82
2023/10/03 13:06:08;;;;;;;3.20;1.02;;;;;;;;;;5062727;28;20024;-85
2023/10/03 13:08:34;;;;;;;3.78;1.15;;;;;;;;;;5075360;28;20059;-82
2023/10/03 13:11:05;;;;;;;5.35;1.60;;;;;;;;;;5072363;28;20476;-83
2023/10/03 13:13:31;;;;;;;6.13;1.15;;;;;;;;;;5037877;28;20059;-82
2023/10/03 13:15:56;;;;;;;5.25;1.40;;;;;;;;;;5065432;28;20388;-83
2023/10/03 13:18:23;;;;;;;5.15;1.63;;;;;;;;;;5062619;28;20527;-78
2023/10/03 13:20:49;;;;;;;4.78;1.30;;;;;;;;;;5045775;28;20021;-78
2023/10/03 13:23:15;;;;;;;5.32;1.40;;;;;;;;;;5063318;28;20036;-78
2023/10/03 13:25:40;;;;;;;4.70;1.30;;;;;;;;;;5062857;28;20075;-78
2023/10/03 13:28:10;;;;;;;5.20;1.60;;;;;;;;;;5075383;28;20082;-78
2023/10/03 13:30:38;;;;;;;9.55;2.03;;;;;;;;;;5047191;28;20025;-79
2023/10/03 13:33:04;;;;;;;5.25;1.50;;;;;;;;;;5066564;28;20037;-79
2023/10/03 13:35:35;;;;;;;7.32;1.58;;;;;;;;;;5023532;28;20028;-78
2023/10/03 13:38:01;;;;;;;4.57;1.45;;;;;;;;;;5057921;28;20048;-78
2023/10/03 13:40:28;;;;;;;5.35;1.50;;;;;;;;;;5036916;28;20167;-78
2023/10/03 13:42:53;;;;;;;4.88;1.23;;;;;;;;;;5051100;28;20107;-79
2023/10/03 13:45:19;;;;;;;6.88;1.58;;;;;;;;;;5036811;28;20461;-79
2023/10/03 13:47:45;;;;;;;4.75;1.70;;;;;;;;;;5050889;28;20035;-78
2023/10/03 13:50:15;;;;;;;5.15;1.73;;;;;;;;;;5070441;28;20028;-78
2023/10/03 13:52:41;;;;;;;5.97;1.77;;;;;;;;;;5060424;28;20122;-77
2023/10/03 13:55:07;;;;;;;5.65;1.40;;;;;;;;;;5052493;28;20147;-77
2023/10/03 13:57:35;;;;;;;3.90;1.40;;;;;;;;;;5057447;28;20417;-77
2023/10/03 14:00:01;;;;;;;6.97;1.55;;;;;;;;;;5075149;28;20028;-77
2023/10/03 14:02:26;;;;;;;4.07;1.33;;;;;;;;;;5050055;28;20519;-77
2023/10/03 14:04:51;;;;;;;4.05;1.40;;;;;;;;;;5067096;28;20077;-77
2023/10/03 14:07:17;;;;;;;5.05;1.60;;;;;;;;;;5067598;28;20055;-77
2023/10/03 14:09:42;;;;;;;5.07;1.45;;;;;;;;;;5069744;28;20013;-77
2023/10/03 14:12:08;;;;;;;5.32;1.60;;;;;;;;;;5043010;28;20024;-78
2023/10/03 14:14:33;;;;;;;4.93;1.80;;;;;;;;;;5059025;28;20025;-78
2023/10/03 14:17:02;;;;;;;5.45;1.50;;;;;;;;;;5063325;28;20033;-78
2023/10/03 14:19:28;;;;;;;6.15;1.55;;;;;;;;;;5071925;28;20028;-77
2023/10/03 14:21:54;;;;;;;5.20;1.60;;;;;;;;;;5053264;28;20040;-77
2023/10/03 14:24:20;;;;;;;7.07;2.20;;;;;;;;;;5058887;28;20224;-77
2023/10/03 14:26:45;;;;;;;6.18;1.40;;;;;;;;;;5062963;28;20039;-78
2023/10/03 14:29:11;;;;;;;5.97;1.50;;;;;;;;;;5071362;28;20553;-77
2023/10/03 14:31:36;;;;;;;6.90;1.70;;;;;;;;;;5039721;28;20583;-78
2023/10/03 14:34:03;;;;;;;5.75;1.65;;;;;;;;;;5065432;28;20048;-78
2023/10/03 14:36:29;;;;;;;4.75;1.67;;;;;;;;;;5049228;28;20020;-77
2023/10/03 14:38:54;;;;;;;4.35;1.50;;;;;;;;;;5049566;28;20085;-77
2023/10/03 14:41:19;;;;;;;6.03;1.60;;;;;;;;;;5045290;28;20032;-77
2023/10/03 14:43:45;;;;;;;7.25;1.95;;;;;;;;;;5072792;28;20099;-77
2023/10/03 14:46:10;;;;;;;5.93;1.70;;;;;;;;;;5066876;28;20042;-77
2023/10/03 14:48:39;;;;;;;4.13;1.75;;;;;;;;;;5063917;28;20054;-77